Time;durP1;ratioP1;P1;durP2;ratioP2;P2;SDS_P1;SDS_P2;PMS_P1;PMS_P2;Temp;Humidity;BMP_temperature;BMP_pressure;BME280_temperature;BME280_humidity;BME280_pressure;Samples;Min_cycle;Max_cycle;Signal;HPM_P1;HPM_P2
2021/12/22 00:01:50;;;;;;;19.10;7.80;;;;;;;-2.92;93.06;100354.48;103914;1306;22885;-29
2021/12/22 00:04:16;;;;;;;15.70;7.80;;;;;;;-2.90;93.09;100359.48;103885;1314;24259;-30
2021/12/22 00:06:42;;;;;;;25.70;9.50;;;;;;;-2.85;93.10;100360.92;103896;1307;24259;-30
2021/12/22 00:09:09;;;;;;;26.90;8.30;;;;;;;-2.84;93.47;100363.01;103969;1314;22450;-30
2021/12/22 00:11:34;;;;;;;16.40;6.70;;;;;;;-2.68;93.18;100361.02;103838;1302;22768;-30
2021/12/22 00:14:00;;;;;;;18.30;11.20;;;;;;;-2.67;92.77;100366.23;103943;1314;22529;-27
2021/12/22 00:16:26;;;;;;;6.20;4.20;;;;;;;-2.53;92.21;100359.98;104004;1314;24116;-29
2021/12/22 00:18:52;;;;;;;17.70;8.40;;;;;;;-2.51;91.93;100360.58;103917;1314;22884;-30
2021/12/22 00:21:20;;;;;;;14.20;6.90;;;;;;;-2.60;91.88;100369.17;103944;1314;24227;-30
2021/12/22 00:23:46;;;;;;;29.50;8.80;;;;;;;-2.55;92.29;100370.27;103972;1314;22482;-30
2021/12/22 00:26:15;;;;;;;17.70;8.60;;;;;;;-2.65;92.66;100370.65;103906;1314;22815;-31
2021/12/22 00:28:41;;;;;;;26.40;11.00;;;;;;;-2.66;93.00;100375.67;103917;1308;24384;-30
2021/12/22 00:31:12;;;;;;;15.00;7.10;;;;;;;-2.52;92.71;100371.83;103652;1310;24159;-25
2021/12/22 00:33:46;;;;;;;21.60;8.50;;;;;;;-2.52;91.78;100370.98;103599;1314;24247;-25
2021/12/22 00:36:13;;;;;;;35.20;10.80;;;;;;;-2.67;92.83;100375.33;103779;1314;24309;-26
2021/12/22 00:38:39;;;;;;;17.80;9.80;;;;;;;-2.77;93.97;100375.92;103896;1306;24145;-28
2021/12/22 00:41:05;;;;;;;26.00;9.20;;;;;;;-2.66;93.71;100370.88;103952;1314;24258;-28
2021/12/22 00:43:31;;;;;;;21.70;10.30;;;;;;;-2.62;93.36;100375.77;103942;1314;22732;-31
2021/12/22 00:45:57;;;;;;;24.90;6.10;;;;;;;-2.76;93.52;100377.77;103903;1306;23726;-27
2021/12/22 00:48:23;;;;;;;11.70;6.70;;;;;;;-2.82;94.77;100381.13;103876;1315;24236;-27
2021/12/22 00:50:50;;;;;;;16.60;6.50;;;;;;;-2.70;94.05;100378.48;104001;1314;22476;-28
2021/12/22 00:53:16;;;;;;;19.20;8.30;;;;;;;-2.74;94.24;100380.83;103901;1314;22473;-28
2021/12/22 00:55:42;;;;;;;17.70;6.70;;;;;;;-2.79;94.68;100381.96;103902;1314;24253;-28
2021/12/22 00:58:08;;;;;;;9.50;6.50;;;;;;;-2.74;94.88;100384.88;103852;1314;24132;-25
2021/12/22 01:00:34;;;;;;;10.40;6.20;;;;;;;-2.41;93.59;100391.39;103893;1311;22468;-25
2021/12/22 01:03:00;;;;;;;34.30;11.90;;;;;;;-2.46;92.75;100389.55;103583;1313;24143;-25
2021/12/22 01:05:26;;;;;;;19.20;5.50;;;;;;;-2.73;93.95;100389.75;103951;1313;22562;-29
2021/12/22 01:07:52;;;;;;;23.60;9.50;;;;;;;-2.80;94.55;100389.40;103972;1314;24158;-26
2021/12/22 01:10:20;;;;;;;20.40;11.20;;;;;;;-2.91;95.63;100389.83;103939;1316;24132;-25
2021/12/22 01:12:46;;;;;;;21.80;11.20;;;;;;;-2.87;96.02;100389.27;103955;1305;22569;-25
2021/12/22 01:15:12;;;;;;;14.50;7.40;;;;;;;-2.88;95.97;100393.73;104091;1310;24137;-25
2021/12/22 01:17:43;;;;;;;21.10;8.70;;;;;;;-2.76;95.46;100394.45;103827;1308;24247;-25
2021/12/22 01:20:20;;;;;;;20.60;10.30;;;;;;;-2.91;95.88;100397.20;103828;1314;24252;-30
2021/12/22 01:22:48;;;;;;;17.80;9.40;;;;;;;-2.93;96.24;100400.84;104024;1314;24256;-27
2021/12/22 01:25:18;;;;;;;32.40;10.60;;;;;;;-2.88;96.27;100402.28;103922;1314;24571;-28
2021/12/22 01:27:44;;;;;;;19.30;8.80;;;;;;;-2.86;95.86;100402.52;103864;1314;22555;-28
2021/12/22 01:30:12;;;;;;;17.70;8.50;;;;;;;-2.92;93.91;100410.03;104058;1313;24106;-30
2021/12/22 01:32:40;;;;;;;11.50;5.90;;;;;;;-2.91;93.25;100409.83;103938;1314;22461;-30
2021/12/22 01:35:08;;;;;;;16.50;6.50;;;;;;;-2.90;92.13;100403.83;103764;1314;25799;-31
2021/12/22 01:37:34;;;;;;;13.90;6.10;;;;;;;-2.89;91.77;100407.46;103945;1308;24194;-30
2021/12/22 01:40:01;;;;;;;20.30;7.70;;;;;;;-2.83;92.06;100407.31;103813;1313;24162;-27
2021/12/22 01:42:28;;;;;;;13.40;6.80;;;;;;;-2.88;90.45;100407.72;103985;1314;24162;-30
2021/12/22 01:49:57;;;;;;;12.70;5.40;;;;;;;-2.85;88.77;100413.89;104134;1314;23944;-27
2021/12/22 01:52:24;;;;;;;12.20;5.70;;;;;;;-2.85;88.61;100417.90;104052;1307;23812;-28
2021/12/22 01:55:03;;;;;;;13.10;5.80;;;;;;;-2.90;87.85;100417.11;103738;1314;24177;-27
2021/12/22 01:57:30;;;;;;;10.50;5.20;;;;;;;-2.84;87.84;100411.90;103894;1316;23007;-26
2021/12/22 01:59:56;;;;;;;14.60;6.20;;;;;;;-2.93;86.87;100412.73;103836;1314;24261;-31
2021/12/22 02:02:22;;;;;;;10.10;4.60;;;;;;;-3.02;86.30;100409.94;103730;1313;22752;-30
2021/12/22 02:04:48;;;;;;;13.10;5.70;;;;;;;-3.10;85.77;100415.64;103862;1315;24827;-25
2021/12/22 02:07:14;;;;;;;8.30;3.70;;;;;;;-3.15;86.16;100412.04;103973;1314;24193;-28
2021/12/22 02:12:10;;;;;;;10.90;5.50;;;;;;;-3.18;86.08;100409.05;103909;1314;24084;-27
2021/12/22 02:14:36;;;;;;;11.20;4.30;;;;;;;-3.16;86.26;100408.77;103835;1313;22461;-29
2021/12/22 02:17:07;;;;;;;17.70;6.10;;;;;;;-3.18;86.59;100409.75;103604;1313;22472;-29
2021/12/22 02:19:37;;;;;;;10.80;5.00;;;;;;;-3.13;87.39;100411.95;103858;1314;24308;-27
2021/12/22 02:22:08;;;;;;;12.40;5.90;;;;;;;-3.10;86.98;100411.78;104022;1314;23953;-27
2021/12/22 02:24:34;;;;;;;14.00;4.70;;;;;;;-3.13;86.16;100412.30;103761;1310;22788;-30
2021/12/22 02:27:05;;;;;;;12.20;4.30;;;;;;;-3.09;86.60;100413.83;103871;1313;24248;-25
2021/12/22 02:29:36;;;;;;;13.50;4.20;;;;;;;-3.06;86.41;100414.88;103920;1313;22579;-25
2021/12/22 02:32:08;;;;;;;15.10;4.80;;;;;;;-3.07;86.27;100414.23;103933;1310;22459;-24
2021/12/22 02:34:41;;;;;;;13.20;4.30;;;;;;;-3.13;85.23;100415.30;103865;1315;22812;-30
2021/12/22 02:37:12;;;;;;;11.60;5.10;;;;;;;-3.23;84.86;100413.73;103746;1310;24146;-27
2021/12/22 02:39:47;;;;;;;9.20;5.20;;;;;;;-3.31;84.47;100418.14;103800;1310;24175;-30
2021/12/22 02:42:13;;;;;;;7.90;4.10;;;;;;;-3.39;84.40;100421.21;104063;1314;24189;-27
2021/12/22 02:44:39;;;;;;;8.30;3.00;;;;;;;-3.39;85.23;100420.73;103777;1307;22530;-27
2021/12/22 02:47:12;;;;;;;11.90;4.70;;;;;;;-3.39;86.03;100421.41;104001;1314;22579;-27
2021/12/22 02:49:38;;;;;;;7.10;3.70;;;;;;;-3.43;86.13;100420.06;103997;1298;22544;-30
2021/12/22 02:52:04;;;;;;;10.40;3.90;;;;;;;-3.49;85.99;100421.97;103833;1314;24133;-27
2021/12/22 02:54:39;;;;;;;11.30;4.50;;;;;;;-3.58;86.04;100419.94;103614;1314;24333;-31
2021/12/22 02:57:19;;;;;;;6.90;3.20;;;;;;;-3.62;86.57;100421.06;103877;1311;24258;-30
2021/12/22 03:00:25;;;;;;;6.50;3.10;;;;;;;-3.65;86.71;100418.05;103741;1308;24098;-27
2021/12/22 03:02:41;;;;;;;8.80;3.50;;;;;;;-3.71;87.00;100417.03;103838;1314;22557;-30
2021/12/22 03:05:08;;;;;;;8.20;3.40;;;;;;;-3.79;87.35;100417.04;103727;1307;22477;-30
2021/12/22 03:07:34;;;;;;;11.00;2.90;;;;;;;-3.85;87.76;100414.53;103806;1314;22663;-27
2021/12/22 03:10:05;;;;;;;6.50;3.30;;;;;;;-3.86;87.56;100413.41;103958;1310;24146;-27
2021/12/22 03:12:34;;;;;;;8.40;3.60;;;;;;;-3.96;87.37;100415.14;103999;1316;22462;-30
2021/12/22 03:15:01;;;;;;;11.80;3.80;;;;;;;-4.07;87.25;100412.02;103940;1310;24261;-26
2021/12/22 03:17:27;;;;;;;6.10;3.00;;;;;;;-4.15;87.64;100413.85;103655;1313;22461;-26
2021/12/22 03:19:53;;;;;;;7.30;3.50;;;;;;;-4.18;87.74;100419.74;103965;1314;22472;-27
2021/12/22 03:22:20;;;;;;;12.10;4.20;;;;;;;-4.24;87.74;100423.56;103765;1302;22446;-28
2021/12/22 03:24:48;;;;;;;5.30;2.70;;;;;;;-4.37;87.67;100425.26;103921;1316;22521;-25
2021/12/22 03:27:14;;;;;;;6.80;2.20;;;;;;;-4.40;88.61;100431.52;104048;1314;24133;-25
2021/12/22 03:29:41;;;;;;;13.80;3.30;;;;;;;-4.42;88.41;100437.23;103984;1314;22472;-28
2021/12/22 03:32:07;;;;;;;11.30;2.90;;;;;;;-4.48;87.56;100437.50;103928;1313;24144;-25
2021/12/22 03:34:34;;;;;;;8.90;3.60;;;;;;;-4.57;88.20;100441.81;103818;1311;24132;-25
2021/12/22 03:37:00;;;;;;;6.80;4.10;;;;;;;-4.59;88.07;100442.44;103855;1314;22520;-28
2021/12/22 03:39:27;;;;;;;7.60;3.10;;;;;;;-4.64;88.49;100446.02;103973;1314;22721;-25
2021/12/22 03:41:53;;;;;;;6.20;3.00;;;;;;;-4.67;88.85;100447.52;103976;1313;24263;-28
2021/12/22 03:44:19;;;;;;;10.00;3.80;;;;;;;-4.73;89.48;100453.73;103928;1307;24172;-28
2021/12/22 03:46:45;;;;;;;9.20;3.70;;;;;;;-4.77;88.21;100458.18;103727;1314;22568;-29
2021/12/22 03:49:11;;;;;;;17.20;3.60;;;;;;;-4.88;88.04;100457.11;103968;1313;24192;-26
2021/12/22 03:51:38;;;;;;;11.60;4.10;;;;;;;-4.86;87.52;100459.48;104049;1314;22821;-28
2021/12/22 03:54:05;;;;;;;7.00;4.20;;;;;;;-4.94;87.66;100459.30;103963;1315;22811;-25
2021/12/22 03:56:31;;;;;;;12.30;3.50;;;;;;;-4.99;87.84;100461.30;104004;1307;24173;-28
2021/12/22 03:58:57;;;;;;;10.20;4.80;;;;;;;-5.07;88.38;100464.98;103360;1304;793993;-27
2021/12/22 04:01:23;;;;;;;12.50;3.90;;;;;;;-5.04;88.61;100464.16;103908;1314;24246;-25
2021/12/22 04:03:53;;;;;;;7.60;3.60;;;;;;;-5.08;88.83;100466.23;103689;1307;24133;-25
2021/12/22 04:06:19;;;;;;;16.80;4.40;;;;;;;-5.11;89.19;100464.48;103828;1314;22826;-28
2021/12/22 04:08:44;;;;;;;8.80;2.20;;;;;;;-5.17;89.58;100465.25;103600;1314;24249;-28
2021/12/22 04:11:10;;;;;;;7.70;4.00;;;;;;;-5.25;90.10;100467.70;103762;1311;24159;-25
2021/12/22 04:13:36;;;;;;;10.30;4.80;;;;;;;-5.33;90.39;100469.30;103861;1311;22718;-25
2021/12/22 04:16:02;;;;;;;13.90;5.30;;;;;;;-5.38;90.49;100469.01;103708;1314;24355;-26
2021/12/22 04:18:28;;;;;;;13.40;3.30;;;;;;;-5.35;90.47;100472.55;103870;1301;22570;-28
2021/12/22 04:20:54;;;;;;;8.20;2.60;;;;;;;-5.35;90.85;100471.86;103893;1314;24148;-25
2021/12/22 04:23:20;;;;;;;10.50;3.90;;;;;;;-5.37;90.64;100467.41;103861;1302;22724;-25
2021/12/22 04:25:47;;;;;;;7.50;3.40;;;;;;;-5.39;90.20;100470.45;103921;1314;24089;-28
2021/12/22 04:28:13;;;;;;;15.30;6.70;;;;;;;-5.45;90.44;100464.08;103926;1314;24172;-30
2021/12/22 04:30:41;;;;;;;14.20;5.70;;;;;;;-5.51;90.95;100466.80;104017;1314;22835;-28
2021/12/22 04:33:08;;;;;;;14.50;5.80;;;;;;;-5.55;91.84;100465.96;104010;1314;23459;-29
2021/12/22 04:35:34;;;;;;;10.80;4.20;;;;;;;-5.55;92.32;100471.02;103663;1313;24298;-29
2021/12/22 04:38:00;;;;;;;12.10;4.00;;;;;;;-5.50;91.71;100471.98;103822;1314;22459;-28
2021/12/22 04:40:26;;;;;;;9.10;4.20;;;;;;;-5.46;91.59;100472.32;103894;1314;24249;-25
2021/12/22 04:42:52;;;;;;;8.00;3.60;;;;;;;-5.45;91.37;100476.64;103921;1314;24251;-29
2021/12/22 04:45:18;;;;;;;17.50;7.80;;;;;;;-5.50;90.64;100480.02;103961;1310;22522;-25
2021/12/22 04:47:44;;;;;;;22.20;12.00;;;;;;;-5.55;90.60;100479.89;103849;1313;22586;-25
2021/12/22 04:50:15;;;;;;;24.70;9.70;;;;;;;-5.61;90.65;100482.08;103902;1313;24158;-25
2021/12/22 04:52:49;;;;;;;10.90;5.10;;;;;;;-5.64;90.73;100490.21;103905;1313;24180;-25
2021/12/22 04:55:15;;;;;;;9.80;2.40;;;;;;;-5.68;90.72;100493.55;103825;1310;22579;-25
2021/12/22 04:57:42;;;;;;;10.30;2.90;;;;;;;-5.71;90.70;100492.60;103951;1305;24255;-28
2021/12/22 05:00:10;;;;;;;17.00;4.10;;;;;;;-5.84;91.07;100495.28;103766;1314;22454;-29
2021/12/22 05:02:36;;;;;;;12.00;5.30;;;;;;;-5.90;91.18;100494.88;103929;1313;24204;-25
2021/12/22 05:05:03;;;;;;;8.20;1.80;;;;;;;-5.95;91.48;100495.43;103883;1313;24261;-28
2021/12/22 05:07:29;;;;;;;12.20;3.50;;;;;;;-5.99;92.27;100499.11;103857;1311;24184;-25
2021/12/22 05:09:55;;;;;;;5.20;2.50;;;;;;;-6.09;92.60;100497.77;103814;1310;24258;-28
2021/12/22 05:12:21;;;;;;;12.10;5.30;;;;;;;-6.03;92.77;100502.20;103920;1314;22560;-25
2021/12/22 05:14:49;;;;;;;11.90;5.60;;;;;;;-6.07;92.89;100498.93;103926;1310;22460;-28
2021/12/22 05:17:21;;;;;;;29.00;7.60;;;;;;;-6.08;92.76;100495.66;103868;1314;24145;-25
2021/12/22 05:19:49;;;;;;;14.50;7.80;;;;;;;-6.13;92.75;100494.78;103823;1307;22729;-24
2021/12/22 05:22:15;;;;;;;9.00;4.00;;;;;;;-6.16;92.52;100495.24;103791;1314;24147;-29
2021/12/22 05:24:41;;;;;;;11.30;3.80;;;;;;;-6.16;92.99;100492.30;103935;1313;24257;-25
2021/12/22 05:27:08;;;;;;;8.50;2.50;;;;;;;-6.16;92.88;100495.27;103807;1314;24154;-25
2021/12/22 05:29:34;;;;;;;10.50;5.10;;;;;;;-6.25;93.41;100490.08;103739;1314;25267;-28
2021/12/22 05:32:03;;;;;;;9.40;4.20;;;;;;;-6.31;94.25;100491.18;103909;1305;24156;-28
2021/12/22 05:34:29;;;;;;;7.90;4.30;;;;;;;-6.30;95.10;100492.36;103675;1310;24299;-28
2021/12/22 05:36:55;;;;;;;15.30;6.00;;;;;;;-6.29;94.51;100496.69;103863;1314;22489;-27
2021/12/22 05:39:21;;;;;;;8.30;4.50;;;;;;;-6.29;94.48;100502.96;103848;1314;24247;-28
2021/12/22 05:41:48;;;;;;;10.10;4.50;;;;;;;-6.24;96.15;100506.26;103734;1307;22729;-29
2021/12/22 05:44:13;;;;;;;14.60;6.30;;;;;;;-6.20;95.97;100507.99;103868;1307;24159;-25
2021/12/22 05:46:39;;;;;;;8.70;4.00;;;;;;;-6.18;95.60;100509.30;103678;1313;24202;-25
2021/12/22 05:49:05;;;;;;;20.10;7.00;;;;;;;-6.06;94.56;100514.92;103936;1313;22462;-29
2021/12/22 05:51:33;;;;;;;14.70;7.20;;;;;;;-6.12;94.14;100517.42;103938;1314;24212;-24
2021/12/22 05:53:59;;;;;;;22.40;8.50;;;;;;;-6.11;94.02;100525.23;103951;1314;24130;-28
2021/12/22 05:56:27;;;;;;;5.00;2.70;;;;;;;-6.07;93.73;100527.34;103916;1310;22576;-25
2021/12/22 05:58:53;;;;;;;9.70;4.50;;;;;;;-6.25;94.34;100533.13;103849;1314;24262;-25
2021/12/22 06:01:19;;;;;;;21.60;8.80;;;;;;;-6.29;94.73;100529.79;103789;1314;24148;-25
2021/12/22 06:03:45;;;;;;;15.50;6.20;;;;;;;-6.32;94.41;100534.27;103761;1307;24550;-25
2021/12/22 06:06:11;;;;;;;13.40;6.60;;;;;;;-6.41;94.77;100537.95;103924;1316;23734;-25
2021/12/22 06:08:37;;;;;;;25.90;6.30;;;;;;;-6.43;94.93;100538.39;103934;1314;24148;-25
2021/12/22 06:11:04;;;;;;;12.60;5.50;;;;;;;-6.37;94.59;100538.32;103929;1314;22469;-24
2021/12/22 06:13:30;;;;;;;9.80;4.50;;;;;;;-6.50;95.58;100539.90;104047;1293;24290;-28
2021/12/22 06:15:55;;;;;;;7.20;3.70;;;;;;;-6.43;95.53;100544.83;103927;1305;24157;-28
2021/12/22 06:18:21;;;;;;;13.70;3.70;;;;;;;-6.38;94.75;100550.55;103698;1314;24258;-24
2021/12/22 06:20:47;;;;;;;11.20;4.00;;;;;;;-6.41;94.67;100546.84;103759;1314;22459;-28
2021/12/22 06:23:13;;;;;;;13.00;6.10;;;;;;;-6.57;95.01;100549.38;103863;1314;24166;-28
2021/12/22 06:25:39;;;;;;;16.50;6.10;;;;;;;-6.63;95.20;100549.08;103947;1307;22808;-28
2021/12/22 06:28:05;;;;;;;19.60;7.30;;;;;;;-6.66;95.37;100551.28;104016;1313;22591;-28
2021/12/22 06:30:31;;;;;;;10.10;4.20;;;;;;;-6.53;95.34;100554.98;104043;1314;24313;-28
2021/12/22 06:32:57;;;;;;;11.30;4.90;;;;;;;-6.56;95.84;100561.88;103905;1307;23387;-28
2021/12/22 06:35:23;;;;;;;11.30;4.20;;;;;;;-6.48;96.34;100567.30;103850;1314;22458;-30
2021/12/22 06:37:49;;;;;;;10.90;5.60;;;;;;;-6.46;96.34;100569.50;103945;1310;22826;-25
2021/12/22 06:40:15;;;;;;;13.90;5.50;;;;;;;-6.46;96.45;100573.85;104072;1314;24107;-24
2021/12/22 06:42:41;;;;;;;20.00;8.60;;;;;;;-6.43;96.78;100575.32;103678;1311;22692;-25
2021/12/22 06:45:08;;;;;;;13.60;6.80;;;;;;;-6.51;97.24;100575.80;103827;1307;24212;-28
2021/12/22 06:47:34;;;;;;;21.80;7.90;;;;;;;-6.65;98.12;100576.00;103861;1314;24200;-28
2021/12/22 06:50:00;;;;;;;24.00;9.70;;;;;;;-6.69;99.46;100577.34;103931;1313;22524;-25
2021/12/22 06:52:27;;;;;;;25.40;5.90;;;;;;;-6.72;99.34;100581.66;103875;1314;22804;-28
2021/12/22 06:54:53;;;;;;;16.90;6.80;;;;;;;-6.70;98.93;100587.66;103844;1314;24254;-28
2021/12/22 06:57:21;;;;;;;22.30;5.90;;;;;;;-6.59;98.48;100590.89;103933;1314;24148;-28
2021/12/22 06:59:47;;;;;;;19.50;7.40;;;;;;;-6.62;97.80;100592.23;103901;1310;22461;-28
2021/12/22 07:02:13;;;;;;;26.70;9.20;;;;;;;-6.65;98.15;100598.98;103685;1304;24158;-26
2021/12/22 07:04:39;;;;;;;26.00;10.30;;;;;;;-6.58;98.63;100601.65;103896;1314;24408;-28
2021/12/22 07:07:05;;;;;;;26.20;9.40;;;;;;;-6.45;98.24;100603.45;103613;1314;24151;-29
2021/12/22 07:09:31;;;;;;;11.90;5.90;;;;;;;-6.47;98.18;100605.09;103678;1314;24256;-25
2021/12/22 07:11:58;;;;;;;18.20;9.70;;;;;;;-6.39;98.50;100605.83;103851;1314;22561;-25
2021/12/22 07:14:24;;;;;;;29.90;11.60;;;;;;;-6.34;98.63;100601.44;103843;1314;24253;-25
2021/12/22 07:16:50;;;;;;;20.60;7.80;;;;;;;-6.29;99.00;100600.91;103873;1310;22586;-26
2021/12/22 07:19:16;;;;;;;15.90;6.10;;;;;;;-6.22;99.08;100600.82;104096;1314;22464;-29
2021/12/22 07:21:44;;;;;;;28.20;9.10;;;;;;;-6.12;98.97;100602.30;103892;1310;22464;-28
2021/12/22 07:24:10;;;;;;;28.30;11.10;;;;;;;-6.03;98.11;100605.80;103930;1313;22771;-25
2021/12/22 07:26:37;;;;;;;30.80;10.90;;;;;;;-6.11;98.40;100610.29;103962;1314;23857;-29
2021/12/22 07:29:03;;;;;;;30.20;11.80;;;;;;;-6.05;98.99;100612.86;103791;1314;24122;-25
2021/12/22 07:31:29;;;;;;;36.60;16.30;;;;;;;-5.96;98.53;100615.12;103966;1314;22686;-26
2021/12/22 07:34:01;;;;;;;39.20;13.30;;;;;;;-5.97;98.11;100618.30;103696;1314;22500;-28
2021/12/22 07:36:27;;;;;;;31.90;13.70;;;;;;;-6.03;98.20;100614.33;103821;1310;22707;-25
2021/12/22 07:38:57;;;;;;;65.40;26.70;;;;;;;-5.92;98.39;100618.05;103974;1312;24209;-25
2021/12/22 07:41:23;;;;;;;32.10;12.10;;;;;;;-5.86;97.94;100623.22;103739;1314;24147;-28
2021/12/22 07:43:49;;;;;;;51.20;18.20;;;;;;;-5.86;97.63;100628.11;103709;1314;24213;-25
2021/12/22 07:46:15;;;;;;;19.20;7.20;;;;;;;-5.81;97.27;100629.13;103883;1310;24473;-25
2021/12/22 07:48:41;;;;;;;21.00;8.50;;;;;;;-5.80;97.18;100632.56;103938;1310;24178;-26
2021/12/22 07:51:07;;;;;;;42.80;17.10;;;;;;;-5.83;97.53;100630.44;104009;1305;24259;-30
2021/12/22 07:53:33;;;;;;;27.80;10.70;;;;;;;-5.64;97.44;100628.42;103930;1306;24593;-26
2021/12/22 07:55:59;;;;;;;45.90;16.10;;;;;;;-5.66;96.98;100628.30;104011;1314;22527;-26
2021/12/22 07:58:25;;;;;;;47.20;17.00;;;;;;;-5.70;97.53;100627.61;103952;1314;22765;-26
2021/12/22 08:00:52;;;;;;;19.70;9.20;;;;;;;-5.59;97.61;100627.34;103984;1314;24232;-29
2021/12/22 08:03:18;;;;;;;56.40;21.50;;;;;;;-5.31;97.74;100632.27;103891;1314;24149;-26
2021/12/22 08:05:44;;;;;;;39.80;15.90;;;;;;;-5.39;97.68;100634.35;103706;1307;24134;-27
2021/12/22 08:08:10;;;;;;;17.40;7.20;;;;;;;-5.23;97.81;100634.55;103738;1308;22552;-29
2021/12/22 08:10:36;;;;;;;62.20;13.90;;;;;;;-5.21;97.84;100632.89;103840;1313;24214;-30
2021/12/22 08:13:02;;;;;;;28.50;12.10;;;;;;;-5.15;97.85;100629.48;103845;1314;24252;-29
2021/12/22 08:15:28;;;;;;;46.80;18.30;;;;;;;-4.94;97.91;100629.27;103868;1310;24126;-29
2021/12/22 08:17:55;;;;;;;44.90;15.50;;;;;;;-4.89;97.26;100631.14;103781;1307;22887;-26
2021/12/22 08:20:21;;;;;;;37.60;16.20;;;;;;;-4.91;96.90;100631.71;103809;1310;22816;-26
2021/12/22 08:22:47;;;;;;;43.50;15.10;;;;;;;-5.00;96.54;100637.02;103954;1311;24242;-30
2021/12/22 08:25:13;;;;;;;15.80;8.90;;;;;;;-4.88;97.13;100641.39;103941;1314;24113;-30
2021/12/22 08:27:39;;;;;;;40.90;13.90;;;;;;;-4.62;96.96;100636.00;103862;1311;24158;-29
2021/12/22 08:30:07;;;;;;;31.10;14.60;;;;;;;-4.43;96.38;100634.63;103701;1314;22464;-30
2021/12/22 08:32:33;;;;;;;32.30;13.30;;;;;;;-4.32;95.68;100638.47;104098;1314;22735;-30
2021/12/22 08:35:02;;;;;;;25.10;11.00;;;;;;;-4.29;95.66;100637.85;103895;1310;26069;-30
2021/12/22 08:39:57;;;;;;;49.70;17.80;;;;;;;-3.87;94.49;100636.70;103828;1314;23933;-29
2021/12/22 08:42:25;;;;;;;39.90;17.40;;;;;;;-3.69;93.36;100639.52;103916;1304;22474;-26
2021/12/22 08:44:51;;;;;;;31.60;12.10;;;;;;;-3.53;92.58;100638.70;103668;1314;24147;-26
2021/12/22 08:47:17;;;;;;;168.30;45.80;;;;;;;-3.16;92.86;100638.25;103855;1314;24268;-26
2021/12/22 08:49:43;;;;;;;80.90;28.80;;;;;;;-3.22;90.94;100638.86;103623;1313;24124;-26
2021/12/22 08:52:09;;;;;;;36.10;11.40;;;;;;;-3.28;90.59;100639.21;103826;1305;24422;-26
2021/12/22 08:54:35;;;;;;;83.00;27.90;;;;;;;-2.90;90.12;100639.84;103593;1314;24213;-29
2021/12/22 08:57:01;;;;;;;110.40;32.50;;;;;;;-2.94;89.00;100643.77;103745;1314;22733;-27
2021/12/22 08:59:27;;;;;;;102.30;33.20;;;;;;;-3.00;89.47;100644.95;103712;1313;22554;-25
2021/12/22 09:01:53;;;;;;;61.90;23.00;;;;;;;-2.88;89.98;100644.54;103868;1307;24300;-29
2021/12/22 09:04:20;;;;;;;108.40;40.00;;;;;;;-2.51;89.42;100638.98;103938;1310;24158;-29
2021/12/22 09:06:47;;;;;;;70.90;23.00;;;;;;;-2.50;86.85;100640.55;103935;1302;22839;-27
2021/12/22 09:09:13;;;;;;;40.50;18.20;;;;;;;-2.74;87.53;100644.80;103731;1315;23841;-25
2021/12/22 09:11:39;;;;;;;46.40;18.40;;;;;;;-2.34;88.56;100644.95;103935;1307;24121;-27
2021/12/22 09:14:06;;;;;;;43.60;16.70;;;;;;;-2.28;88.45;100647.05;103910;1313;24329;-29
2021/12/22 09:16:33;;;;;;;48.80;19.00;;;;;;;-1.89;87.40;100644.55;103738;1310;22474;-31
2021/12/22 09:18:59;;;;;;;44.80;17.60;;;;;;;-2.11;86.85;100647.34;103898;1314;24140;-31
2021/12/22 09:21:25;;;;;;;49.00;15.90;;;;;;;-1.84;87.78;100650.23;103769;1314;24128;-29
2021/12/22 09:23:51;;;;;;;40.70;16.70;;;;;;;-1.61;87.16;100645.42;103784;1313;24333;-26
2021/12/22 09:26:17;;;;;;;54.50;19.20;;;;;;;-1.64;85.46;100647.00;103680;1307;24261;-25
2021/12/22 09:28:43;;;;;;;65.70;17.60;;;;;;;-1.45;86.40;100648.73;103846;1314;24185;-29
2021/12/22 09:31:09;;;;;;;49.30;20.80;;;;;;;-1.04;82.92;100648.94;103915;1313;22932;-29
2021/12/22 09:33:38;;;;;;;37.20;15.80;;;;;;;-1.56;83.72;100643.77;103874;1316;23902;-25
2021/12/22 09:36:08;;;;;;;50.20;19.30;;;;;;;-1.45;85.81;100640.79;104026;1304;22722;-29
2021/12/22 09:38:33;;;;;;;44.40;17.00;;;;;;;-1.08;85.93;100642.50;103780;1314;24255;-26
2021/12/22 09:41:00;;;;;;;41.50;17.10;;;;;;;-1.15;84.98;100644.51;103859;1314;25479;-30
2021/12/22 09:43:27;;;;;;;37.30;17.80;;;;;;;-0.87;86.14;100644.36;103624;1313;24147;-30
2021/12/22 09:45:58;;;;;;;39.60;16.00;;;;;;;-0.77;84.62;100639.02;103838;1314;22713;-25
2021/12/22 09:48:35;;;;;;;37.70;14.80;;;;;;;-0.88;83.30;100638.27;103818;1310;22441;-30
2021/12/22 09:53:49;;;;;;;29.40;12.60;;;;;;;-0.38;81.24;100635.55;103865;1314;23772;-30
2021/12/22 09:56:17;;;;;;;36.00;12.80;;;;;;;-0.62;81.58;100629.49;103651;1310;24290;-26
2021/12/22 09:58:43;;;;;;;29.60;13.60;;;;;;;-0.59;80.09;100628.63;103857;1314;24141;-26
2021/12/22 10:01:10;;;;;;;18.20;8.80;;;;;;;-0.33;80.66;100628.20;103874;1304;24284;-26
2021/12/22 10:03:35;;;;;;;26.60;12.20;;;;;;;-0.22;77.66;100630.34;103703;1314;24124;-26
2021/12/22 10:06:02;;;;;;;28.10;13.30;;;;;;;-0.39;79.02;100632.61;103804;1313;24381;-26
2021/12/22 10:08:28;;;;;;;35.50;14.70;;;;;;;-0.26;78.55;100638.90;103954;1314;22465;-26
2021/12/22 10:11:04;;;;;;;42.00;18.40;;;;;;;-0.13;77.77;100639.80;103839;1313;22478;-26
2021/12/22 10:13:30;;;;;;;32.10;12.80;;;;;;;-0.07;77.58;100638.90;103888;1313;22459;-26
2021/12/22 10:15:56;;;;;;;30.00;13.20;;;;;;;0.67;72.69;100636.48;103590;1314;22437;-29
2021/12/22 10:18:25;;;;;;;28.80;11.50;;;;;;;0.19;72.72;100637.91;103860;1314;24105;-29
2021/12/22 10:20:53;;;;;;;37.00;16.30;;;;;;;0.10;71.91;100632.81;103739;1314;24500;-26
2021/12/22 10:23:22;;;;;;;34.30;13.30;;;;;;;-0.97;76.14;100637.78;103947;1305;24300;-26
2021/12/22 10:25:52;;;;;;;34.30;13.40;;;;;;;-1.02;77.19;100632.24;103802;1314;24304;-29
2021/12/22 10:28:19;;;;;;;41.60;14.60;;;;;;;-0.83;76.63;100632.38;103888;1314;24253;-26
2021/12/22 10:30:45;;;;;;;37.60;18.10;;;;;;;-0.81;76.99;100634.89;103755;1314;24145;-29
2021/12/22 10:33:15;;;;;;;31.20;14.80;;;;;;;-0.91;76.79;100634.60;103849;1316;24288;-29
2021/12/22 10:35:43;;;;;;;27.30;12.60;;;;;;;-0.74;76.74;100630.58;103974;1304;22441;-26
2021/12/22 10:38:10;;;;;;;18.20;8.20;;;;;;;-0.82;77.01;100630.02;103745;1313;24261;-30
2021/12/22 10:40:38;;;;;;;26.10;11.90;;;;;;;-0.31;75.20;100626.15;103733;1313;22545;-30
2021/12/22 10:43:05;;;;;;;31.90;12.20;;;;;;;-1.09;76.34;100629.16;103786;1307;24239;-30
2021/12/22 10:45:34;;;;;;;45.40;15.60;;;;;;;-1.26;77.77;100631.63;104116;1314;24319;-26
2021/12/22 10:50:32;;;;;;;25.60;7.60;;;;;;;-1.40;77.00;100639.80;103630;1311;24148;-29
2021/12/22 10:52:58;;;;;;;28.70;12.20;;;;;;;-1.40;76.05;100644.21;103719;1313;22470;-26
2021/12/22 10:55:24;;;;;;;27.00;12.10;;;;;;;-2.10;78.98;100647.14;103630;1314;24262;-29
2021/12/22 10:57:49;;;;;;;24.40;12.30;;;;;;;-2.25;81.18;100638.16;103598;1308;24463;-28
2021/12/22 11:00:17;;;;;;;33.70;14.20;;;;;;;-2.31;82.20;100629.88;103671;1316;24133;-29
2021/12/22 11:02:50;;;;;;;33.10;17.70;;;;;;;-2.20;82.82;100629.79;103812;1314;24301;-30
2021/12/22 11:05:18;;;;;;;33.40;16.40;;;;;;;-2.17;80.89;100624.00;103695;1311;24138;-26
2021/12/22 11:07:44;;;;;;;28.10;10.70;;;;;;;-2.22;80.43;100619.23;103819;1314;24145;-27
2021/12/22 11:10:29;;;;;;;34.90;12.30;;;;;;;-2.17;79.22;100615.91;103789;1311;25269;-26
2021/12/22 11:12:59;;;;;;;97.50;27.90;;;;;;;-2.53;81.33;100616.17;103800;1310;22719;-30
2021/12/22 11:15:26;;;;;;;38.50;12.60;;;;;;;-2.50;80.87;100616.85;103592;1314;24252;-29
2021/12/22 11:17:52;;;;;;;56.30;15.20;;;;;;;-2.45;80.56;100612.91;103808;1310;24121;-29
2021/12/22 11:20:18;;;;;;;79.80;19.30;;;;;;;-2.35;79.89;100612.55;103793;1314;22754;-27
2021/12/22 11:22:52;;;;;;;49.50;12.60;;;;;;;-2.34;79.75;100614.24;103830;1313;24326;-30